Time;durP1;ratioP1;P1;durP2;ratioP2;P2;SDS_P1;SDS_P2;PMS_P1;PMS_P2;Temp;Humidity;BMP_temperature;BMP_pressure;BME280_temperature;BME280_humidity;BME280_pressure;Samples;Min_cycle;Max_cycle;Signal;HPM_P1;HPM_P2
2022/11/04 00:00:48;;;;;;;1.48;0.90;;;;;;;6.70;100.00;92154.72;2136004;27;20026;-70
2022/11/04 00:01:49;;;;;;;1.90;0.75;;;;;;;6.69;100.00;92166.50;2135971;27;20430;-69
2022/11/04 00:02:50;;;;;;;1.08;0.80;;;;;;;6.64;100.00;92167.00;2136108;27;20361;-70
2022/11/04 00:03:52;;;;;;;2.08;0.82;;;;;;;6.59;100.00;92170.16;2133601;27;20050;-70
2022/11/04 00:04:53;;;;;;;1.75;0.80;;;;;;;6.57;100.00;92162.59;2135745;27;20026;-70
2022/11/04 00:05:54;;;;;;;1.17;1.05;;;;;;;6.60;100.00;92176.94;2135814;27;20526;-70
2022/11/04 00:06:56;;;;;;;2.08;0.75;;;;;;;6.66;100.00;92169.22;2135969;27;20037;-69
2022/11/04 00:09:20;;;;;;;1.27;1.10;;;;;;;6.88;100.00;92174.81;2125438;27;20118;-69
2022/11/04 00:12:23;;;;;;;1.00;0.80;;;;;;;6.84;100.00;92179.44;2135680;27;20075;-69
2022/11/04 00:13:02;;;;;;;0.90;0.90;;;;;;;6.82;100.00;92163.94;2135807;27;20452;-69
2022/11/04 00:14:05;;;;;;;2.67;0.75;;;;;;;6.76;100.00;92169.00;2135463;27;20019;-70
2022/11/04 00:17:46;;;;;;;0.93;0.82;;;;;;;6.77;100.00;92162.53;2135227;27;20049;-70
2022/11/04 00:18:47;;;;;;;3.20;0.90;;;;;;;6.72;100.00;92168.34;2135789;27;20373;-71
2022/11/04 00:29:08;;;;;;;1.10;1.00;;;;;;;6.75;100.00;92158.78;2131731;27;20038;-70
2022/11/04 00:30:10;;;;;;;1.70;0.80;;;;;;;6.70;100.00;92156.63;2135857;27;20452;-70
2022/11/04 00:33:52;;;;;;;3.15;1.00;;;;;;;6.65;100.00;92162.44;2126239;27;20378;-70
2022/11/04 00:34:53;;;;;;;0.73;0.73;;;;;;;6.61;100.00;92162.50;2135598;27;20098;-70
2022/11/04 00:35:56;;;;;;;2.67;1.02;;;;;;;6.61;100.00;92167.06;2133049;27;20071;-70
2022/11/04 00:36:58;;;;;;;2.05;0.73;;;;;;;6.61;100.00;92162.50;2135432;27;20034;-70
2022/11/04 00:37:59;;;;;;;1.40;0.80;;;;;;;6.56;100.00;92170.97;2135825;27;20471;-72
2022/11/04 00:39:00;;;;;;;2.10;0.65;;;;;;;6.87;100.00;92173.31;2135128;27;20093;-70
2022/11/04 00:40:01;;;;;;;0.93;0.75;;;;;;;6.81;100.00;92167.75;2135394;27;20022;-72
2022/11/04 00:41:02;;;;;;;0.80;0.70;;;;;;;6.70;100.00;92165.34;2131309;27;20152;-70
2022/11/04 00:42:03;;;;;;;1.65;0.93;;;;;;;6.67;100.00;92155.56;2135296;27;20034;-70
2022/11/04 00:43:04;;;;;;;2.03;0.70;;;;;;;6.64;100.00;92161.69;2135739;27;20897;-70
2022/11/04 00:44:05;;;;;;;2.90;0.80;;;;;;;6.57;100.00;92157.28;2135273;27;20108;-70
2022/11/04 00:45:07;;;;;;;1.83;0.70;;;;;;;6.51;100.00;92148.31;2135610;27;20113;-70
2022/11/04 00:46:07;;;;;;;0.60;0.60;;;;;;;6.48;100.00;92149.13;2128121;27;20025;-69
2022/11/04 00:47:09;;;;;;;1.95;0.73;;;;;;;6.56;100.00;92152.38;2135422;27;20370;-71
2022/11/04 00:48:10;;;;;;;0.90;0.60;;;;;;;6.59;100.00;92148.91;2135799;27;20033;-69
2022/11/04 00:49:12;;;;;;;1.55;0.60;;;;;;;6.68;100.00;92141.13;2126369;27;20413;-70
2022/11/04 00:50:13;;;;;;;0.77;0.70;;;;;;;6.68;100.00;92146.44;2126460;27;20023;-70
2022/11/04 00:51:14;;;;;;;0.95;0.70;;;;;;;6.63;100.00;92149.56;2134584;27;20026;-71
2022/11/04 00:52:15;;;;;;;0.77;0.55;;;;;;;6.66;100.00;92148.72;2135384;27;20033;-70
2022/11/04 00:53:16;;;;;;;1.15;0.50;;;;;;;6.60;100.00;92144.34;2135197;27;20022;-72
2022/11/04 00:54:17;;;;;;;0.80;0.50;;;;;;;6.48;100.00;92143.81;2135560;27;20030;-70
2022/11/04 00:55:18;;;;;;;2.03;0.43;;;;;;;6.46;100.00;92154.13;2135667;27;20034;-70
2022/11/04 00:56:20;;;;;;;1.48;0.40;;;;;;;6.44;100.00;92150.38;2134149;27;20071;-70
2022/11/04 00:57:21;;;;;;;0.65;0.40;;;;;;;6.47;100.00;92147.66;2135466;27;20038;-70
2022/11/04 00:58:22;;;;;;;2.35;0.50;;;;;;;6.48;100.00;92153.69;2135566;27;20133;-69
2022/11/04 00:59:23;;;;;;;0.52;0.43;;;;;;;6.43;100.00;92152.28;2135524;27;20422;-71
2022/11/04 01:00:24;;;;;;;4.32;0.52;;;;;;;6.57;100.00;92156.53;2135359;27;20457;-70
2022/11/04 01:01:25;;;;;;;1.55;0.40;;;;;;;6.57;100.00;92161.84;2135462;27;20034;-70
2022/11/04 01:02:26;;;;;;;0.35;0.35;;;;;;;6.48;100.00;92149.13;2134487;27;20025;-70
2022/11/04 01:03:27;;;;;;;0.32;0.32;;;;;;;6.45;100.00;92151.84;2135380;27;20117;-71
2022/11/04 01:04:28;;;;;;;0.40;0.40;;;;;;;6.48;100.00;92149.13;2135630;27;20034;-70
2022/11/04 01:05:29;;;;;;;0.38;0.30;;;;;;;6.47;100.00;92150.28;2135745;27;20078;-70
2022/11/04 01:06:31;;;;;;;0.40;0.30;;;;;;;6.46;100.00;92153.38;2135622;27;20456;-70
2022/11/04 01:07:31;;;;;;;0.30;0.30;;;;;;;6.54;100.00;92157.34;2130637;27;20033;-69
2022/11/04 01:08:33;;;;;;;0.40;0.30;;;;;;;6.57;100.00;92162.59;2135498;27;20440;-71
2022/11/04 01:09:35;;;;;;;0.20;0.20;;;;;;;6.63;100.00;92157.53;2135381;27;20046;-72
2022/11/04 01:10:43;;;;;;;1.15;0.40;;;;;;;6.63;100.00;92148.81;2135486;27;20022;-71
2022/11/04 01:11:44;;;;;;;0.30;0.30;;;;;;;6.58;100.00;92155.34;2132160;27;20039;-71
2022/11/04 01:12:52;;;;;;;0.30;0.30;;;;;;;6.54;100.00;92160.00;2134303;27;20062;-70
2022/11/04 01:13:59;;;;;;;2.13;0.30;;;;;;;6.50;100.00;92157.44;2134740;27;20033;-70
2022/11/04 01:15:06;;;;;;;0.35;0.30;;;;;;;6.49;100.00;92150.63;2135076;27;20022;-70
2022/11/04 01:16:09;;;;;;;0.50;0.30;;;;;;;6.45;100.00;92154.50;2125745;27;20042;-70
2022/11/04 01:17:10;;;;;;;0.30;0.30;;;;;;;6.45;100.00;92163.25;2120969;27;20035;-70
2022/11/04 01:18:11;;;;;;;0.93;0.20;;;;;;;6.41;100.00;92154.63;2135261;27;20026;-70
2022/11/04 01:19:13;;;;;;;0.22;0.22;;;;;;;6.44;100.00;92150.38;2135303;27;20019;-70
2022/11/04 01:20:14;;;;;;;0.40;0.20;;;;;;;6.55;100.00;92151.63;2135435;27;20050;-70
2022/11/04 01:21:16;;;;;;;0.30;0.30;;;;;;;6.48;100.00;92154.44;2135436;27;20079;-70
2022/11/04 01:22:17;;;;;;;0.20;0.20;;;;;;;6.42;100.00;92156.09;2134149;27;20102;-71
2022/11/04 01:23:18;;;;;;;1.38;0.25;;;;;;;6.36;100.00;92152.44;2132047;27;20037;-70
2022/11/04 01:24:20;;;;;;;0.90;0.30;;;;;;;6.43;100.00;92154.94;2135277;27;20014;-70
2022/11/04 01:25:21;;;;;;;3.85;0.30;;;;;;;6.49;100.00;92155.94;2135443;27;20037;-69
2022/11/04 01:26:24;;;;;;;0.35;0.30;;;;;;;6.42;100.00;92158.75;2135451;27;20022;-70
2022/11/04 01:27:25;;;;;;;0.30;0.20;;;;;;;6.45;100.00;92163.25;2134102;27;20345;-70
2022/11/04 01:28:26;;;;;;;0.43;0.28;;;;;;;6.46;100.00;92158.69;2133587;27;20063;-70
2022/11/04 01:29:27;;;;;;;0.50;0.50;;;;;;;6.40;100.00;92152.34;2135291;27;20380;-69
2022/11/04 01:30:28;;;;;;;2.90;0.30;;;;;;;6.39;100.00;92159.56;2135523;27;20039;-72
2022/11/04 01:31:30;;;;;;;0.30;0.30;;;;;;;6.37;100.00;92167.22;2135261;27;20046;-69
2022/11/04 01:32:31;;;;;;;0.77;0.30;;;;;;;6.51;100.00;92155.53;2135382;27;20034;-70
2022/11/04 01:33:32;;;;;;;1.27;0.40;;;;;;;6.63;100.00;92156.78;2133226;27;20053;-71
2022/11/04 01:34:33;;;;;;;1.05;0.30;;;;;;;6.71;100.00;92156.19;2135049;27;20372;-70
2022/11/04 01:35:34;;;;;;;2.13;0.40;;;;;;;6.57;100.00;92149.31;2133026;27;20030;-72
2022/11/04 01:36:35;;;;;;;1.45;0.30;;;;;;;6.44;100.00;92156.44;2135005;27;20057;-72
2022/11/04 01:37:35;;;;;;;0.40;0.40;;;;;;;6.35;100.00;92155.50;2135302;27;20029;-70
2022/11/04 01:38:38;;;;;;;0.88;0.60;;;;;;;6.35;100.00;92166.84;2132380;27;20026;-70
2022/11/04 01:39:39;;;;;;;0.80;0.32;;;;;;;6.43;100.00;92162.91;2131061;27;20037;-70
2022/11/04 01:40:40;;;;;;;0.30;0.30;;;;;;;6.35;100.00;92161.56;2135025;27;20030;-69
2022/11/04 01:41:41;;;;;;;0.40;0.40;;;;;;;6.27;100.00;92149.59;2131649;27;20026;-70
2022/11/04 01:42:43;;;;;;;1.00;0.40;;;;;;;6.22;100.00;92153.47;2134676;27;20034;-70
2022/11/04 01:43:52;;;;;;;0.32;0.22;;;;;;;6.30;100.00;92156.72;2133769;27;20029;-71
2022/11/04 01:44:57;;;;;;;0.30;0.30;;;;;;;6.37;100.00;92159.25;2137458;27;20624;-72
2022/11/04 01:45:59;;;;;;;1.45;0.30;;;;;;;6.43;100.00;92156.84;2135456;27;20383;-70
2022/11/04 01:47:00;;;;;;;0.30;0.30;;;;;;;6.33;100.00;92157.84;2135119;27;20022;-70
2022/11/04 01:48:13;;;;;;;0.20;0.20;;;;;;;6.42;100.00;92163.31;2133614;27;20117;-69
2022/11/04 01:49:32;;;;;;;0.30;0.30;;;;;;;6.41;100.00;92156.50;2131644;27;20025;-70
2022/11/04 01:50:35;;;;;;;0.75;0.30;;;;;;;6.38;100.00;92166.03;2135162;27;20098;-70
2022/11/04 01:51:39;;;;;;;0.22;0.22;;;;;;;6.25;100.00;92159.88;2135011;27;20516;-70
2022/11/04 01:52:55;;;;;;;0.30;0.30;;;;;;;6.27;100.00;92154.91;2135116;27;20022;-70
2022/11/04 01:53:56;;;;;;;0.40;0.30;;;;;;;6.33;100.00;92153.28;2135046;27;20071;-70
2022/11/04 01:55:04;;;;;;;0.47;0.28;;;;;;;6.26;100.00;92148.09;2134814;27;20033;-70
2022/11/04 01:56:10;;;;;;;0.77;0.40;;;;;;;6.26;100.00;92156.81;2135527;27;20926;-70
2022/11/04 01:57:18;;;;;;;1.38;0.40;;;;;;;6.28;100.00;92159.06;2131481;27;20058;-70
2022/11/04 01:58:22;;;;;;;1.75;0.40;;;;;;;6.49;100.00;92147.97;2135010;27;20553;-70
2022/11/04 01:59:28;;;;;;;2.58;0.30;;;;;;;6.38;100.00;92152.78;2132055;27;20052;-70
2022/11/04 02:00:30;;;;;;;1.42;0.50;;;;;;;6.33;100.00;92153.28;2135106;27;20036;-70
2022/11/04 02:01:31;;;;;;;2.30;0.40;;;;;;;6.26;100.00;92150.75;2135127;27;20159;-69
2022/11/04 02:02:32;;;;;;;0.43;0.43;;;;;;;6.35;100.00;92152.84;2135145;27;20082;-70
2022/11/04 02:03:37;;;;;;;0.65;0.40;;;;;;;6.37;100.00;92150.53;2134714;27;20026;-69
2022/11/04 02:04:39;;;;;;;0.40;0.40;;;;;;;6.41;100.00;92154.63;2130396;27;20024;-71
2022/11/04 02:05:41;;;;;;;1.40;0.43;;;;;;;6.42;100.00;92150.06;2135449;27;20109;-70
2022/11/04 02:06:44;;;;;;;1.23;0.30;;;;;;;6.39;100.00;92150.88;2135147;27;20077;-70
2022/11/04 02:07:54;;;;;;;1.08;0.40;;;;;;;6.33;100.00;92149.88;2135119;27;20030;-69
2022/11/04 02:08:55;;;;;;;0.32;0.30;;;;;;;6.32;100.00;92143.78;2133992;27;20507;-70
2022/11/04 02:09:57;;;;;;;0.63;0.47;;;;;;;6.36;100.00;92144.47;2133398;27;20033;-71
2022/11/04 02:11:00;;;;;;;0.50;0.47;;;;;;;6.30;100.00;92138.91;2134957;27;20037;-71
2022/11/04 02:13:21;;;;;;;0.30;0.30;;;;;;;6.40;100.00;92136.44;2125907;27;20031;-70
2022/11/04 02:16:42;;;;;;;;;;;;;;;6.50;100.00;92135.47;2145389;27;20522;-71
2022/11/04 02:18:04;;;;;;;0.47;0.40;;;;;;;6.28;100.00;92130.63;2136746;27;19955;-70
2022/11/04 02:19:23;;;;;;;0.35;0.30;;;;;;;6.28;100.00;92138.59;2138219;27;20037;-71
2022/11/04 02:20:43;;;;;;;0.50;0.40;;;;;;;6.18;100.00;92118.31;2137102;27;20155;-69
2022/11/04 02:22:05;;;;;;;0.43;0.40;;;;;;;6.19;100.00;92134.97;2134658;27;20087;-70
2022/11/04 02:24:00;;;;;;;0.40;0.40;;;;;;;6.04;100.00;92132.63;2137985;27;20086;-70
2022/11/04 02:25:31;;;;;;;0.50;0.50;;;;;;;5.87;100.00;92119.69;2102207;28;20573;-69
2022/11/04 02:26:35;;;;;;;4.43;0.50;;;;;;;5.83;100.00;92127.72;2102893;28;20083;-71
2022/11/04 02:27:57;;;;;;;1.33;0.50;;;;;;;5.88;100.00;92116.63;2136258;27;20047;-69
2022/11/04 02:29:22;;;;;;;0.60;0.43;;;;;;;5.92;100.00;92105.97;2136555;27;20608;-69
2022/11/04 02:30:24;;;;;;;1.48;0.40;;;;;;;5.90;100.00;92105.63;2129438;27;20027;-70
2022/11/04 02:31:28;;;;;;;1.42;0.60;;;;;;;6.18;100.00;92106.97;2135963;27;20031;-72
2022/11/04 02:33:07;;;;;;;0.93;0.55;;;;;;;5.97;100.00;92108.16;2138025;27;20106;-70
2022/11/04 02:34:19;;;;;;;3.42;0.55;;;;;;;5.85;100.00;92101.56;2133175;27;20511;-70
2022/11/04 02:35:35;;;;;;;17.90;0.90;;;;;;;5.79;100.00;92103.94;2137113;27;20568;-72
2022/11/04 02:36:57;;;;;;;0.70;0.35;;;;;;;5.69;100.00;92117.41;2137414;27;20054;-70
2022/11/04 02:38:14;;;;;;;1.02;0.52;;;;;;;5.91;100.00;92129.06;2136620;27;20100;-70
2022/11/04 02:39:35;;;;;;;0.50;0.50;;;;;;;5.84;100.00;92131.88;2134618;27;20030;-72
2022/11/04 02:41:00;;;;;;;1.65;0.50;;;;;;;5.84;100.00;92123.94;2123732;27;20047;-70
2022/11/04 02:42:21;;;;;;;0.52;0.32;;;;;;;5.80;100.00;92123.25;2131446;27;20038;-70
2022/11/04 02:43:35;;;;;;;2.25;0.60;;;;;;;5.71;100.00;92112.47;2135369;27;20102;-71
2022/11/04 02:44:47;;;;;;;0.63;0.50;;;;;;;5.62;100.00;92107.69;2137853;27;20041;-70
2022/11/04 02:45:56;;;;;;;4.10;0.60;;;;;;;5.56;100.00;92099.47;2134255;27;20033;-69
2022/11/04 02:47:02;;;;;;;0.50;0.40;;;;;;;5.50;100.00;92103.75;2136800;27;20050;-70
2022/11/04 02:48:32;;;;;;;0.50;0.50;;;;;;;5.54;100.00;92109.72;2137266;27;20430;-69
2022/11/04 02:49:38;;;;;;;1.85;0.50;;;;;;;5.50;100.00;92109.06;2110784;28;20181;-70
2022/11/04 02:50:55;;;;;;;0.60;0.50;;;;;;;5.67;100.00;92114.44;2128784;27;20031;-71
2022/11/04 02:52:09;;;;;;;0.77;0.50;;;;;;;5.63;100.00;92119.06;2137703;27;20031;-69
2022/11/04 02:53:31;;;;;;;0.98;0.60;;;;;;;5.55;100.00;92121.81;2133474;27;20063;-72
2022/11/04 02:54:39;;;;;;;1.98;0.70;;;;;;;5.41;100.00;92118.69;2137701;27;20027;-70
2022/11/04 02:55:46;;;;;;;0.77;0.40;;;;;;;5.40;100.00;92123.25;2129161;27;20079;-69
2022/11/04 02:56:51;;;;;;;1.55;0.47;;;;;;;5.36;100.00;92122.56;2134612;27;20087;-69
2022/11/04 02:57:57;;;;;;;1.85;0.60;;;;;;;5.30;100.00;92119.63;2137795;27;20053;-70
2022/11/04 02:59:04;;;;;;;0.60;0.40;;;;;;;5.31;100.00;92120.38;2137809;27;20122;-71
2022/11/04 03:00:07;;;;;;;0.70;0.50;;;;;;;5.53;100.00;92118.06;2128372;27;20034;-69
2022/11/04 03:01:13;;;;;;;2.28;0.70;;;;;;;5.49;100.00;92117.41;2128065;27;20039;-69
2022/11/04 03:02:24;;;;;;;1.25;0.60;;;;;;;5.47;100.00;92117.06;2137475;27;20038;-70
2022/11/04 03:03:30;;;;;;;3.05;0.60;;;;;;;5.35;100.00;92099.84;2137324;27;20367;-69
2022/11/04 03:04:37;;;;;;;1.02;0.57;;;;;;;5.35;100.00;92102.50;2128325;27;20023;-69
2022/11/04 03:05:43;;;;;;;2.10;0.63;;;;;;;5.32;100.00;92108.66;2124980;27;20027;-69
2022/11/04 03:06:47;;;;;;;2.22;0.75;;;;;;;5.29;100.00;92112.84;2136931;27;20123;-69
2022/11/04 03:07:53;;;;;;;1.98;0.73;;;;;;;5.42;100.00;92115.63;2137616;27;20029;-69
2022/11/04 03:08:54;;;;;;;1.13;0.75;;;;;;;5.33;100.00;92115.44;2137593;27;20030;-71
2022/11/04 03:10:00;;;;;;;2.42;0.77;;;;;;;5.44;100.00;92117.88;2137631;27;20030;-70
2022/11/04 03:11:11;;;;;;;1.70;0.60;;;;;;;5.40;100.00;92119.84;2137674;27;20031;-70
2022/11/04 03:12:17;;;;;;;2.10;0.65;;;;;;;5.37;100.00;92118.03;2133849;27;20101;-70
2022/11/04 03:13:20;;;;;;;1.92;0.80;;;;;;;5.42;100.00;92125.50;2137288;27;20109;-71
2022/11/04 03:14:32;;;;;;;0.98;0.70;;;;;;;5.37;100.00;92126.72;2137648;27;20026;-71
2022/11/04 03:15:36;;;;;;;1.20;0.65;;;;;;;5.32;100.00;92129.09;2137242;27;20041;-70
2022/11/04 03:16:48;;;;;;;1.23;0.75;;;;;;;5.33;100.00;92128.69;2130346;27;20023;-70
2022/11/04 03:17:59;;;;;;;0.80;0.73;;;;;;;5.30;100.00;92130.22;2137407;27;20040;-71
2022/11/04 03:19:24;;;;;;;0.77;0.75;;;;;;;5.34;100.00;92129.44;2137619;27;20027;-70
2022/11/04 03:20:27;;;;;;;2.72;0.85;;;;;;;5.29;100.00;92123.44;2135749;27;20030;-69
2022/11/04 03:21:34;;;;;;;3.00;0.80;;;;;;;5.55;100.00;92127.13;2137565;27;20042;-70
2022/11/04 03:22:36;;;;;;;2.10;0.73;;;;;;;5.62;100.00;92126.25;2137422;27;20034;-70
2022/11/04 03:23:38;;;;;;;1.60;0.60;;;;;;;5.43;100.00;92116.38;2137134;27;20533;-70
2022/11/04 03:24:41;;;;;;;3.30;0.80;;;;;;;5.28;100.00;92116.66;2133367;27;20038;-70
2022/11/04 03:25:49;;;;;;;0.73;0.60;;;;;;;5.20;100.00;92109.97;2137537;27;20368;-69
2022/11/04 03:27:03;;;;;;;0.90;0.80;;;;;;;5.18;100.00;92120.25;2136528;27;20014;-69
2022/11/04 03:28:24;;;;;;;1.58;0.70;;;;;;;5.22;100.00;92113.00;2131201;27;20030;-69
2022/11/04 03:29:31;;;;;;;0.98;0.65;;;;;;;5.22;100.00;92122.81;2129865;27;20377;-71
2022/11/04 03:30:41;;;;;;;0.75;0.60;;;;;;;5.49;100.00;92126.13;2131771;27;20076;-70
2022/11/04 03:32:21;;;;;;;1.67;1.00;;;;;;;5.43;100.00;92126.97;2128175;27;20477;-70
2022/11/04 03:33:35;;;;;;;;;;;;;;;5.32;100.00;92123.78;2129736;27;20769;-70
2022/11/04 03:34:37;;;;;;;3.42;0.68;;;;;;;5.15;100.00;92122.94;2131872;27;20312;-70
2022/11/04 03:35:38;;;;;;;4.05;1.10;;;;;;;5.36;100.00;92106.69;2131234;27;20041;-70
2022/11/04 03:36:39;;;;;;;2.25;1.02;;;;;;;5.44;100.00;92118.63;2122664;27;20031;-69
2022/11/04 03:37:41;;;;;;;1.13;0.73;;;;;;;5.30;100.00;92118.88;2120962;27;20391;-70
2022/11/04 03:38:43;;;;;;;1.75;0.75;;;;;;;5.19;100.00;92126.28;2131457;27;20033;-71
2022/11/04 03:39:44;;;;;;;0.98;0.70;;;;;;;5.12;100.00;92129.06;2131709;27;20479;-70
2022/11/04 03:40:45;;;;;;;2.85;0.90;;;;;;;5.17;100.00;92141.81;2131674;27;20026;-70
2022/11/04 03:41:51;;;;;;;5.05;0.93;;;;;;;5.08;100.00;92123.06;2131872;27;20432;-71
2022/11/04 03:42:58;;;;;;;1.35;1.02;;;;;;;5.09;100.00;92120.00;2107497;28;20024;-71
2022/11/04 03:43:59;;;;;;;2.72;1.00;;;;;;;5.02;100.00;92105.00;2118560;27;20354;-71
2022/11/04 03:45:00;;;;;;;1.42;0.63;;;;;;;5.09;100.00;92103.38;2131791;27;20074;-71
2022/11/04 03:46:02;;;;;;;2.95;0.80;;;;;;;5.08;100.00;92104.53;2131711;27;20439;-70
2022/11/04 03:47:03;;;;;;;1.50;0.70;;;;;;;5.05;100.00;92108.75;2131058;27;20033;-70
2022/11/04 03:48:04;;;;;;;1.90;1.15;;;;;;;5.13;100.00;92109.34;2130901;27;20472;-71
2022/11/04 03:49:07;;;;;;;1.27;0.57;;;;;;;4.94;100.00;92105.53;2131205;27;20092;-71
2022/11/04 03:50:24;;;;;;;4.20;0.90;;;;;;;5.04;100.00;92107.97;2127393;27;20027;-71
2022/11/04 03:51:26;;;;;;;2.10;0.90;;;;;;;4.97;100.00;92107.38;2131584;27;20022;-70
2022/11/04 03:52:28;;;;;;;3.10;0.80;;;;;;;4.95;100.00;92110.41;2131242;27;20034;-69
2022/11/04 03:53:30;;;;;;;0.70;0.65;;;;;;;4.91;100.00;92116.91;2130514;27;20039;-70
2022/11/04 03:54:34;;;;;;;2.78;0.80;;;;;;;4.83;100.00;92118.94;2131440;27;20080;-71
2022/11/04 03:56:13;;;;;;;2.67;1.05;;;;;;;4.77;100.00;92128.50;2131428;27;20058;-70
2022/11/04 03:57:34;;;;;;;1.92;0.98;;;;;;;4.83;100.00;92124.25;2128181;27;20023;-71
2022/11/04 03:58:54;;;;;;;2.30;0.85;;;;;;;4.78;100.00;92124.69;2131502;27;20400;-71
2022/11/04 04:00:15;;;;;;;2.55;0.98;;;;;;;4.70;100.00;92124.06;2128907;27;20618;-71
2022/11/04 04:01:57;;;;;;;2.58;0.80;;;;;;;4.72;100.00;92121.75;2128540;27;20349;-70
2022/11/04 04:03:12;;;;;;;1.77;0.90;;;;;;;4.74;100.00;92130.06;2130164;27;20034;-71
2022/11/04 04:04:32;;;;;;;7.05;1.08;;;;;;;4.73;100.00;92133.84;2126724;27;20038;-70
2022/11/04 04:05:56;;;;;;;2.08;0.90;;;;;;;4.77;100.00;92136.44;2131527;27;20118;-70
2022/11/04 04:07:04;;;;;;;5.13;0.90;;;;;;;4.77;100.00;92144.38;2117177;27;20051;-70
2022/11/04 04:08:14;;;;;;;2.00;0.75;;;;;;;4.88;100.00;92129.06;2131375;27;20796;-70
2022/11/04 04:09:20;;;;;;;;;;;;;;;4.75;100.00;92130.81;2127663;27;20018;-70
2022/11/04 04:10:48;;;;;;;1.77;1.00;;;;;;;4.73;100.00;92131.19;2131489;27;19916;-70
2022/11/04 04:12:14;;;;;;;1.67;1.08;;;;;;;4.70;100.00;92131.25;2128867;27;20503;-70
2022/11/04 04:13:18;;;;;;;5.65;1.02;;;;;;;4.70;100.00;92131.25;2127812;27;20483;-70
2022/11/04 04:15:01;;;;;;;2.00;1.00;;;;;;;4.70;100.00;92126.72;2131172;27;20491;-70
2022/11/04 04:16:01;;;;;;;4.13;0.90;;;;;;;4.65;100.00;92129.06;2126173;27;20461;-71
2022/11/04 04:17:23;;;;;;;1.08;0.90;;;;;;;4.68;100.00;92122.97;2131364;27;20022;-70
2022/11/04 04:18:42;;;;;;;5.03;0.90;;;;;;;4.71;100.00;92119.53;2129295;27;20035;-71
2022/11/04 04:19:57;;;;;;;3.70;1.15;;;;;;;4.63;100.00;92118.88;2126847;27;20044;-70
2022/11/04 04:21:02;;;;;;;2.42;1.00;;;;;;;4.61;100.00;92123.06;2131353;27;20031;-70
2022/11/04 04:22:13;;;;;;;1.17;0.80;;;;;;;4.76;100.00;92125.09;2131144;27;20412;-70
2022/11/04 04:27:31;;;;;;;5.50;0.70;;;;;;;4.58;100.00;92113.31;2129914;27;20034;-70
2022/11/04 04:28:32;;;;;;;4.10;0.90;;;;;;;4.54;100.00;92108.06;2131222;27;20030;-70
2022/11/04 04:29:34;;;;;;;3.53;0.90;;;;;;;4.60;100.00;92103.78;2121776;27;20046;-71
2022/11/04 04:30:36;;;;;;;1.95;0.88;;;;;;;4.61;100.00;92107.19;2121277;27;20055;-70
2022/11/04 04:31:48;;;;;;;2.72;0.90;;;;;;;4.61;100.00;92109.84;2131295;27;20027;-70
2022/11/04 04:32:55;;;;;;;2.28;1.02;;;;;;;4.59;100.00;92106.84;2128720;27;20027;-69
2022/11/04 04:33:56;;;;;;;4.47;0.90;;;;;;;4.57;100.00;92098.59;2130749;27;20387;-69
2022/11/04 04:36:16;;;;;;;3.03;1.05;;;;;;;4.50;100.00;92104.72;2128425;27;20466;-70
2022/11/04 04:37:21;;;;;;;2.20;0.80;;;;;;;4.54;100.00;92108.06;2131146;27;20022;-70
2022/11/04 04:45:24;;;;;;;2.78;1.20;;;;;;;4.46;100.00;92096.81;2124240;27;20000;-70
2022/11/04 04:46:30;;;;;;;1.48;0.80;;;;;;;4.47;100.00;92097.56;2130409;27;20030;-70
2022/11/04 04:47:37;;;;;;;6.78;0.98;;;;;;;4.48;100.00;92083.97;2130622;27;20110;-69
2022/11/04 04:48:38;;;;;;;2.10;0.90;;;;;;;4.41;100.00;92089.34;2126883;27;20035;-70
2022/11/04 04:50:09;;;;;;;3.75;1.10;;;;;;;4.41;100.00;92081.41;2131048;27;20037;-69
2022/11/04 04:51:10;;;;;;;2.45;1.08;;;;;;;4.40;100.00;92082.56;2107742;27;20027;-71
2022/11/04 04:52:11;;;;;;;3.80;1.30;;;;;;;4.28;100.00;92075.19;2131100;27;20900;-70
2022/11/04 04:53:12;;;;;;;1.63;1.00;;;;;;;4.31;100.00;92076.31;2130756;27;20034;-71
2022/11/04 04:54:13;;;;;;;3.17;0.98;;;;;;;4.28;100.00;92080.47;2130941;27;20027;-70
2022/11/04 04:55:15;;;;;;;1.48;0.75;;;;;;;4.28;100.00;92069.91;2131110;27;20050;-70
2022/11/04 04:56:16;;;;;;;2.13;0.90;;;;;;;4.20;100.00;92068.50;2130738;27;20060;-70
2022/11/04 04:57:17;;;;;;;3.13;0.80;;;;;;;4.22;100.00;92069.63;2121000;27;20137;-70
2022/11/04 04:58:18;;;;;;;1.63;0.80;;;;;;;4.42;100.00;92058.34;2121767;27;20062;-70
2022/11/04 04:59:19;;;;;;;2.75;0.90;;;;;;;4.35;100.00;92058.47;2131044;27;20031;-69
2022/11/04 05:00:20;;;;;;;1.70;0.80;;;;;;;4.33;100.00;92050.94;2130983;27;20422;-69
2022/11/04 05:01:21;;;;;;;2.25;1.33;;;;;;;4.27;100.00;92049.91;2121491;27;20035;-70
2022/11/04 05:02:22;;;;;;;1.90;0.90;;;;;;;4.23;100.00;92049.94;2121547;27;20027;-70
2022/11/04 05:03:23;;;;;;;2.58;1.00;;;;;;;4.19;100.00;92040.56;2130771;27;20027;-70
2022/11/04 05:04:24;;;;;;;2.22;1.08;;;;;;;4.17;100.00;92040.97;2130719;27;20030;-69
2022/11/04 05:05:25;;;;;;;2.78;0.90;;;;;;;4.13;100.00;92037.66;2130998;27;20072;-70
2022/11/04 05:06:26;;;;;;;4.40;1.50;;;;;;;4.16;100.00;92044.00;2130671;27;20109;-70
2022/11/04 05:07:27;;;;;;;1.48;1.00;;;;;;;4.10;100.00;92049.00;2130221;27;20093;-71
2022/11/04 05:08:28;;;;;;;2.65;1.15;;;;;;;4.10;100.00;92048.28;2131026;27;20034;-71
2022/11/04 05:09:29;;;;;;;4.25;1.15;;;;;;;4.11;100.00;92055.03;2130950;27;20047;-70
2022/11/04 05:10:30;;;;;;;3.40;1.20;;;;;;;4.15;100.00;92055.75;2130976;27;20026;-70
2022/11/04 05:11:31;;;;;;;5.18;1.40;;;;;;;4.19;100.00;92059.09;2130659;27;20049;-69
2022/11/04 05:13:54;;;;;;;5.95;1.55;;;;;;;4.14;100.00;92064.84;2130384;27;20042;-71
2022/11/04 05:14:54;;;;;;;1.77;1.10;;;;;;;4.11;100.00;92071.66;2125582;27;20035;-70
2022/11/04 05:16:02;;;;;;;10.32;4.95;;;;;;;4.09;100.00;92066.03;2125826;27;20034;-71
2022/11/04 05:17:04;;;;;;;10.63;4.60;;;;;;;4.10;100.00;92080.00;2126772;27;20030;-70
2022/11/04 05:18:08;;;;;;;9.80;5.68;;;;;;;4.12;100.00;92072.41;2126997;27;20019;-69
2022/11/04 05:19:09;;;;;;;12.05;5.50;;;;;;;4.09;100.00;92079.25;2123689;27;20026;-70
2022/11/04 05:20:10;;;;;;;10.32;5.13;;;;;;;4.07;100.00;92080.78;2117145;27;20054;-71
2022/11/04 05:21:14;;;;;;;8.23;3.88;;;;;;;4.07;100.00;92086.06;2110237;28;20068;-69
2022/11/04 05:22:15;;;;;;;6.85;4.45;;;;;;;4.12;100.00;92083.72;2119146;27;20039;-70
2022/11/04 05:23:16;;;;;;;10.00;4.00;;;;;;;4.14;100.00;92078.06;2127830;27;20536;-70
2022/11/04 05:24:17;;;;;;;8.32;3.47;;;;;;;4.12;100.00;92096.19;2128128;27;20071;-70
2022/11/04 05:25:18;;;;;;;5.82;3.10;;;;;;;4.08;100.00;92087.56;2128158;27;20118;-70
2022/11/04 05:26:20;;;;;;;7.93;3.95;;;;;;;4.17;100.00;92091.22;2118325;27;20508;-70
2022/11/04 05:27:21;;;;;;;7.63;3.53;;;;;;;4.20;100.00;92089.66;2122470;27;20703;-72
2022/11/04 05:28:22;;;;;;;8.10;5.10;;;;;;;4.13;100.00;92084.50;2127401;27;20027;-72
2022/11/04 05:29:23;;;;;;;7.70;5.07;;;;;;;3.94;100.00;92086.63;2127992;27;20023;-70
2022/11/04 05:30:26;;;;;;;7.55;5.57;;;;;;;3.99;100.00;92086.16;2118557;27;20048;-70
2022/11/04 05:31:29;;;;;;;7.63;4.57;;;;;;;4.05;100.00;92078.56;2118837;27;20039;-69
2022/11/04 05:32:30;;;;;;;5.35;4.05;;;;;;;4.03;100.00;92072.91;2127747;27;20086;-70
2022/11/04 05:33:32;;;;;;;5.82;3.20;;;;;;;4.07;100.00;92063.03;2123446;27;20022;-69
2022/11/04 05:34:33;;;;;;;6.65;3.42;;;;;;;4.17;100.00;92064.00;2128156;27;20050;-68
2022/11/04 05:35:34;;;;;;;7.25;3.00;;;;;;;4.06;100.00;92058.88;2119276;27;20023;-69
2022/11/04 05:36:35;;;;;;;5.82;3.67;;;;;;;4.01;100.00;92057.44;2118670;27;20034;-68
2022/11/04 05:37:36;;;;;;;7.55;3.97;;;;;;;4.00;100.00;92063.16;2128304;27;20027;-71
2022/11/04 05:38:38;;;;;;;6.63;4.53;;;;;;;3.89;100.00;92060.63;2125173;27;20037;-70
2022/11/04 05:39:38;;;;;;;11.85;4.75;;;;;;;3.89;100.00;92062.53;2124452;27;20027;-69
2022/11/04 05:40:39;;;;;;;17.92;5.68;;;;;;;3.91;100.00;92065.53;2128459;27;20030;-71
2022/11/04 05:41:41;;;;;;;10.77;5.65;;;;;;;3.85;100.00;92064.47;2128327;27;20022;-70
2022/11/04 05:42:42;;;;;;;10.50;5.28;;;;;;;3.90;100.00;92069.31;2128164;27;20031;-70
2022/11/04 05:43:42;;;;;;;7.80;4.95;;;;;;;3.90;100.00;92059.47;2127389;27;20734;-69
2022/11/04 05:44:43;;;;;;;8.98;5.55;;;;;;;3.86;100.00;92061.44;2128272;27;20043;-72
2022/11/04 05:45:45;;;;;;;6.53;4.90;;;;;;;3.82;100.00;92062.63;2128478;27;20112;-69
2022/11/04 05:46:46;;;;;;;8.45;5.03;;;;;;;3.75;100.00;92058.94;2127233;27;20349;-69